sensor_id;sensor_type;location;lat;lon;timestamp;temperature;humidity
64855;DHT22;51321;50.428;8.378;2022-12-07T00:00:11;3.30;99.90
64855;DHT22;51321;50.428;8.378;2022-12-07T00:02:33;3.30;99.90
64855;DHT22;51321;50.428;8.378;2022-12-07T00:04:55;3.30;99.90
64855;DHT22;51321;50.428;8.378;2022-12-07T00:07:17;3.30;99.90
64855;DHT22;51321;50.428;8.378;2022-12-07T00:09:39;3.20;99.90
64855;DHT22;51321;50.428;8.378;2022-12-07T00:12:04;3.30;99.90
64855;DHT22;51321;50.428;8.378;2022-12-07T00:14:26;3.20;99.90
64855;DHT22;51321;50.428;8.378;2022-12-07T00:16:49;3.20;99.90
64855;DHT22;51321;50.428;8.378;2022-12-07T00:19:14;3.20;99.90
64855;DHT22;51321;50.428;8.378;2022-12-07T00:21:36;3.30;99.90
64855;DHT22;51321;50.428;8.378;2022-12-07T00:23:58;3.30;99.90
64855;DHT22;51321;50.428;8.378;2022-12-07T00:26:22;3.30;99.90
64855;DHT22;51321;50.428;8.378;2022-12-07T00:28:47;3.30;99.90
64855;DHT22;51321;50.428;8.378;2022-12-07T00:31:11;3.30;99.90
64855;DHT22;51321;50.428;8.378;2022-12-07T00:33:34;3.30;99.90
64855;DHT22;51321;50.428;8.378;2022-12-07T00:35:57;3.30;99.90
64855;DHT22;51321;50.428;8.378;2022-12-07T00:38:19;3.30;99.90
64855;DHT22;51321;50.428;8.378;2022-12-07T00:40:41;3.30;99.90
64855;DHT22;51321;50.428;8.378;2022-12-07T00:43:03;3.30;99.90
64855;DHT22;51321;50.428;8.378;2022-12-07T00:45:27;3.40;99.90
64855;DHT22;51321;50.428;8.378;2022-12-07T00:47:49;3.50;99.90
64855;DHT22;51321;50.428;8.378;2022-12-07T00:50:11;3.50;99.90
64855;DHT22;51321;50.428;8.378;2022-12-07T00:52:33;3.50;99.90
64855;DHT22;51321;50.428;8.378;2022-12-07T00:54:55;3.50;99.90
64855;DHT22;51321;50.428;8.378;2022-12-07T00:57:17;3.50;99.90
64855;DHT22;51321;50.428;8.378;2022-12-07T00:59:39;3.50;99.90
64855;DHT22;51321;50.428;8.378;2022-12-07T01:02:03;3.50;99.90
64855;DHT22;51321;50.428;8.378;2022-12-07T01:04:25;3.60;99.90
64855;DHT22;51321;50.428;8.378;2022-12-07T01:06:47;3.60;99.90
64855;DHT22;51321;50.428;8.378;2022-12-07T01:09:09;3.60;99.90
64855;DHT22;51321;50.428;8.378;2022-12-07T01:11:31;3.60;99.90
64855;DHT22;51321;50.428;8.378;2022-12-07T01:13:55;3.60;99.90
64855;DHT22;51321;50.428;8.378;2022-12-07T01:16:18;3.60;99.90
64855;DHT22;51321;50.428;8.378;2022-12-07T01:18:42;3.60;99.90
64855;DHT22;51321;50.428;8.378;2022-12-07T01:21:10;3.60;99.90
64855;DHT22;51321;50.428;8.378;2022-12-07T01:23:33;3.70;99.90
64855;DHT22;51321;50.428;8.378;2022-12-07T01:25:56;3.60;99.90
64855;DHT22;51321;50.428;8.378;2022-12-07T01:28:18;3.60;99.90
64855;DHT22;51321;50.428;8.378;2022-12-07T01:30:40;3.60;99.90
64855;DHT22;51321;50.428;8.378;2022-12-07T01:33:02;3.60;99.90
64855;DHT22;51321;50.428;8.378;2022-12-07T01:35:25;3.60;99.90
64855;DHT22;51321;50.428;8.378;2022-12-07T01:37:47;3.60;99.90
64855;DHT22;51321;50.428;8.378;2022-12-07T01:40:11;3.60;99.90
64855;DHT22;51321;50.428;8.378;2022-12-07T01:42:33;3.50;99.90
64855;DHT22;51321;50.428;8.378;2022-12-07T01:48:07;3.60;99.90
64855;DHT22;51321;50.428;8.378;2022-12-07T01:50:31;3.70;99.90
64855;DHT22;51321;50.428;8.378;2022-12-07T01:52:56;3.70;99.90
64855;DHT22;51321;50.428;8.378;2022-12-07T01:55:20;3.60;99.90
64855;DHT22;51321;50.428;8.378;2022-12-07T01:57:47;3.70;99.90
64855;DHT22;51321;50.428;8.378;2022-12-07T02:00:10;3.70;99.90
64855;DHT22;51321;50.428;8.378;2022-12-07T02:02:38;3.70;99.90
64855;DHT22;51321;50.428;8.378;2022-12-07T02:05:03;3.80;99.90
64855;DHT22;51321;50.428;8.378;2022-12-07T02:07:29;3.70;99.90
64855;DHT22;51321;50.428;8.378;2022-12-07T02:09:51;3.70;99.90
64855;DHT22;51321;50.428;8.378;2022-12-07T02:12:13;3.80;99.90
64855;DHT22;51321;50.428;8.378;2022-12-07T02:14:36;3.80;99.90
64855;DHT22;51321;50.428;8.378;2022-12-07T02:17:07;3.90;99.90
64855;DHT22;51321;50.428;8.378;2022-12-07T02:20:02;3.90;99.90
64855;DHT22;51321;50.428;8.378;2022-12-07T02:23:16;3.90;99.90
64855;DHT22;51321;50.428;8.378;2022-12-07T02:25:58;3.80;99.90
64855;DHT22;51321;50.428;8.378;2022-12-07T02:28:28;3.90;99.90
64855;DHT22;51321;50.428;8.378;2022-12-07T02:30:55;3.80;99.90
64855;DHT22;51321;50.428;8.378;2022-12-07T02:33:26;3.80;99.90
64855;DHT22;51321;50.428;8.378;2022-12-07T02:35:54;3.80;99.90
64855;DHT22;51321;50.428;8.378;2022-12-07T02:38:20;3.70;99.90
64855;DHT22;51321;50.428;8.378;2022-12-07T02:40:48;3.80;99.90
64855;DHT22;51321;50.428;8.378;2022-12-07T02:43:15;3.80;99.90
64855;DHT22;51321;50.428;8.378;2022-12-07T02:45:40;3.90;99.90
64855;DHT22;51321;50.428;8.378;2022-12-07T02:48:07;3.80;99.90
64855;DHT22;51321;50.428;8.378;2022-12-07T02:50:30;3.80;99.90
64855;DHT22;51321;50.428;8.378;2022-12-07T02:52:52;3.80;99.90
64855;DHT22;51321;50.428;8.378;2022-12-07T02:55:17;3.70;99.90
64855;DHT22;51321;50.428;8.378;2022-12-07T02:57:54;3.80;99.90
64855;DHT22;51321;50.428;8.378;2022-12-07T03:00:18;3.90;99.90
64855;DHT22;51321;50.428;8.378;2022-12-07T03:02:49;3.90;99.90
64855;DHT22;51321;50.428;8.378;2022-12-07T03:05:41;4.00;99.90
64855;DHT22;51321;50.428;8.378;2022-12-07T03:08:13;4.00;99.90
64855;DHT22;51321;50.428;8.378;2022-12-07T03:10:43;4.00;99.90
64855;DHT22;51321;50.428;8.378;2022-12-07T03:13:23;4.00;99.90
64855;DHT22;51321;50.428;8.378;2022-12-07T03:15:51;3.90;99.90
64855;DHT22;51321;50.428;8.378;2022-12-07T03:18:18;4.00;99.90
64855;DHT22;51321;50.428;8.378;2022-12-07T03:20:44;4.00;99.90
64855;DHT22;51321;50.428;8.378;2022-12-07T03:23:08;4.00;99.90
64855;DHT22;51321;50.428;8.378;2022-12-07T03:25:33;3.90;99.90
64855;DHT22;51321;50.428;8.378;2022-12-07T03:27:59;3.90;99.90
64855;DHT22;51321;50.428;8.378;2022-12-07T03:30:26;4.00;99.90
64855;DHT22;51321;50.428;8.378;2022-12-07T03:32:52;4.00;99.90
64855;DHT22;51321;50.428;8.378;2022-12-07T03:35:19;3.90;99.90
64855;DHT22;51321;50.428;8.378;2022-12-07T03:37:48;3.90;99.90
64855;DHT22;51321;50.428;8.378;2022-12-07T03:40:15;4.00;99.90
64855;DHT22;51321;50.428;8.378;2022-12-07T03:42:38;4.00;99.90
64855;DHT22;51321;50.428;8.378;2022-12-07T03:45:02;4.00;99.90
64855;DHT22;51321;50.428;8.378;2022-12-07T03:47:29;4.10;99.90
64855;DHT22;51321;50.428;8.378;2022-12-07T03:49:56;4.10;99.90
64855;DHT22;51321;50.428;8.378;2022-12-07T03:52:24;4.10;99.90
64855;DHT22;51321;50.428;8.378;2022-12-07T03:54:54;4.10;99.90
64855;DHT22;51321;50.428;8.378;2022-12-07T03:57:19;4.00;99.90
64855;DHT22;51321;50.428;8.378;2022-12-07T03:59:42;4.10;99.90
64855;DHT22;51321;50.428;8.378;2022-12-07T04:02:08;4.20;99.90
64855;DHT22;51321;50.428;8.378;2022-12-07T04:04:33;4.10;99.90
64855;DHT22;51321;50.428;8.378;2022-12-07T04:06:56;4.10;99.90
64855;DHT22;51321;50.428;8.378;2022-12-07T04:09:18;4.10;99.90
64855;DHT22;51321;50.428;8.378;2022-12-07T04:11:42;4.10;99.90
64855;DHT22;51321;50.428;8.378;2022-12-07T04:14:04;4.10;99.90
64855;DHT22;51321;50.428;8.378;2022-12-07T04:16:41;4.10;99.90
64855;DHT22;51321;50.428;8.378;2022-12-07T04:19:05;4.10;99.90
64855;DHT22;51321;50.428;8.378;2022-12-07T04:21:27;4.00;99.90
64855;DHT22;51321;50.428;8.378;2022-12-07T04:23:49;4.10;99.90
64855;DHT22;51321;50.428;8.378;2022-12-07T04:26:11;4.10;99.90
64855;DHT22;51321;50.428;8.378;2022-12-07T04:28:35;4.10;99.90
64855;DHT22;51321;50.428;8.378;2022-12-07T04:30:57;4.10;99.90
64855;DHT22;51321;50.428;8.378;2022-12-07T04:33:19;4.10;99.90
64855;DHT22;51321;50.428;8.378;2022-12-07T04:35:42;4.10;99.90
64855;DHT22;51321;50.428;8.378;2022-12-07T04:38:04;4.00;99.90
64855;DHT22;51321;50.428;8.378;2022-12-07T04:40:26;4.10;99.90
64855;DHT22;51321;50.428;8.378;2022-12-07T04:42:48;4.10;99.90
64855;DHT22;51321;50.428;8.378;2022-12-07T04:45:12;4.10;99.90
64855;DHT22;51321;50.428;8.378;2022-12-07T04:47:35;4.20;99.90
64855;DHT22;51321;50.428;8.378;2022-12-07T04:49:57;4.20;99.90
64855;DHT22;51321;50.428;8.378;2022-12-07T04:52:19;4.20;99.90
64855;DHT22;51321;50.428;8.378;2022-12-07T04:54:41;4.20;99.90
64855;DHT22;51321;50.428;8.378;2022-12-07T04:57:03;4.20;99.90
64855;DHT22;51321;50.428;8.378;2022-12-07T04:59:25;4.20;99.90
64855;DHT22;51321;50.428;8.378;2022-12-07T05:01:49;4.20;99.90
64855;DHT22;51321;50.428;8.378;2022-12-07T05:04:11;4.20;99.90
64855;DHT22;51321;50.428;8.378;2022-12-07T05:06:33;4.30;99.90
64855;DHT22;51321;50.428;8.378;2022-12-07T05:08:55;4.30;99.90
64855;DHT22;51321;50.428;8.378;2022-12-07T05:11:18;4.30;99.90
64855;DHT22;51321;50.428;8.378;2022-12-07T05:13:54;4.20;99.90
64855;DHT22;51321;50.428;8.378;2022-12-07T05:16:16;4.20;99.90
64855;DHT22;51321;50.428;8.378;2022-12-07T05:18:39;4.20;99.90
64855;DHT22;51321;50.428;8.378;2022-12-07T05:21:01;4.30;99.90
64855;DHT22;51321;50.428;8.378;2022-12-07T05:23:23;4.30;99.90
64855;DHT22;51321;50.428;8.378;2022-12-07T05:25:46;4.30;99.90
64855;DHT22;51321;50.428;8.378;2022-12-07T05:28:08;4.30;99.90
64855;DHT22;51321;50.428;8.378;2022-12-07T05:30:31;4.30;99.90
64855;DHT22;51321;50.428;8.378;2022-12-07T05:32:53;4.30;99.90
64855;DHT22;51321;50.428;8.378;2022-12-07T05:35:17;4.20;99.90
64855;DHT22;51321;50.428;8.378;2022-12-07T05:37:39;4.10;99.90
64855;DHT22;51321;50.428;8.378;2022-12-07T05:40:02;4.10;99.90
64855;DHT22;51321;50.428;8.378;2022-12-07T05:42:24;4.10;99.90
64855;DHT22;51321;50.428;8.378;2022-12-07T05:44:48;4.10;99.90
64855;DHT22;51321;50.428;8.378;2022-12-07T05:47:10;4.10;99.90
64855;DHT22;51321;50.428;8.378;2022-12-07T05:49:32;4.10;99.90
64855;DHT22;51321;50.428;8.378;2022-12-07T05:51:56;4.10;99.90
64855;DHT22;51321;50.428;8.378;2022-12-07T05:54:18;4.00;99.90
64855;DHT22;51321;50.428;8.378;2022-12-07T05:56:40;3.90;99.90
64855;DHT22;51321;50.428;8.378;2022-12-07T05:59:02;3.90;99.90
64855;DHT22;51321;50.428;8.378;2022-12-07T06:01:42;3.90;99.90
64855;DHT22;51321;50.428;8.378;2022-12-07T06:04:04;3.80;99.90
64855;DHT22;51321;50.428;8.378;2022-12-07T06:06:26;3.80;99.90
64855;DHT22;51321;50.428;8.378;2022-12-07T06:08:49;3.90;99.90
64855;DHT22;51321;50.428;8.378;2022-12-07T06:11:11;4.00;99.90
64855;DHT22;51321;50.428;8.378;2022-12-07T06:13:51;4.00;99.90
64855;DHT22;51321;50.428;8.378;2022-12-07T06:16:13;4.10;99.90
64855;DHT22;51321;50.428;8.378;2022-12-07T06:18:35;4.10;99.90
64855;DHT22;51321;50.428;8.378;2022-12-07T06:20:58;4.20;99.90
64855;DHT22;51321;50.428;8.378;2022-12-07T06:23:19;4.10;99.90
64855;DHT22;51321;50.428;8.378;2022-12-07T06:25:46;4.20;99.90
64855;DHT22;51321;50.428;8.378;2022-12-07T06:28:09;4.20;99.90
64855;DHT22;51321;50.428;8.378;2022-12-07T06:30:31;4.20;99.90
64855;DHT22;51321;50.428;8.378;2022-12-07T06:32:53;4.20;99.90
64855;DHT22;51321;50.428;8.378;2022-12-07T06:35:15;4.20;99.90
64855;DHT22;51321;50.428;8.378;2022-12-07T06:37:38;4.20;99.90
64855;DHT22;51321;50.428;8.378;2022-12-07T06:40:00;4.30;99.90
64855;DHT22;51321;50.428;8.378;2022-12-07T06:42:24;4.20;99.90
64855;DHT22;51321;50.428;8.378;2022-12-07T06:44:46;4.30;99.90
64855;DHT22;51321;50.428;8.378;2022-12-07T06:47:08;4.20;99.90
64855;DHT22;51321;50.428;8.378;2022-12-07T06:49:32;4.30;99.90
64855;DHT22;51321;50.428;8.378;2022-12-07T06:51:54;4.20;99.90
64855;DHT22;51321;50.428;8.378;2022-12-07T06:54:16;4.20;99.90
64855;DHT22;51321;50.428;8.378;2022-12-07T06:56:38;4.20;99.90
64855;DHT22;51321;50.428;8.378;2022-12-07T06:59:02;4.20;99.90
64855;DHT22;51321;50.428;8.378;2022-12-07T07:01:24;4.30;99.90
64855;DHT22;51321;50.428;8.378;2022-12-07T07:03:49;4.20;99.90
64855;DHT22;51321;50.428;8.378;2022-12-07T07:06:12;4.20;99.90
64855;DHT22;51321;50.428;8.378;2022-12-07T07:08:34;4.20;99.90
64855;DHT22;51321;50.428;8.378;2022-12-07T07:10:56;4.40;99.90
64855;DHT22;51321;50.428;8.378;2022-12-07T07:13:18;4.50;99.90
64855;DHT22;51321;50.428;8.378;2022-12-07T07:15:42;4.40;99.90
64855;DHT22;51321;50.428;8.378;2022-12-07T07:18:04;4.40;99.90
64855;DHT22;51321;50.428;8.378;2022-12-07T07:20:26;4.30;99.90
64855;DHT22;51321;50.428;8.378;2022-12-07T07:22:48;4.30;99.90
64855;DHT22;51321;50.428;8.378;2022-12-07T07:25:11;4.30;99.90
64855;DHT22;51321;50.428;8.378;2022-12-07T07:27:33;4.30;99.90
64855;DHT22;51321;50.428;8.378;2022-12-07T07:29:55;4.40;99.90
64855;DHT22;51321;50.428;8.378;2022-12-07T07:32:18;4.40;99.90
64855;DHT22;51321;50.428;8.378;2022-12-07T07:34:42;4.40;99.90
64855;DHT22;51321;50.428;8.378;2022-12-07T07:37:04;4.30;99.90
64855;DHT22;51321;50.428;8.378;2022-12-07T07:39:26;4.30;99.90
64855;DHT22;51321;50.428;8.378;2022-12-07T07:41:48;4.20;99.90
64855;DHT22;51321;50.428;8.378;2022-12-07T07:44:18;4.20;99.90
64855;DHT22;51321;50.428;8.378;2022-12-07T07:46:40;4.10;99.90
64855;DHT22;51321;50.428;8.378;2022-12-07T07:49:04;4.10;99.90
64855;DHT22;51321;50.428;8.378;2022-12-07T07:51:26;4.10;99.90
64855;DHT22;51321;50.428;8.378;2022-12-07T07:53:48;4.20;99.90
64855;DHT22;51321;50.428;8.378;2022-12-07T07:56:10;4.20;99.90
64855;DHT22;51321;50.428;8.378;2022-12-07T07:58:32;4.20;99.90
64855;DHT22;51321;50.428;8.378;2022-12-07T08:00:54;4.20;99.90
64855;DHT22;51321;50.428;8.378;2022-12-07T08:03:16;4.20;99.90
64855;DHT22;51321;50.428;8.378;2022-12-07T08:05:40;4.30;99.90
64855;DHT22;51321;50.428;8.378;2022-12-07T08:08:02;4.20;99.90
64855;DHT22;51321;50.428;8.378;2022-12-07T08:10:24;4.20;99.90
64855;DHT22;51321;50.428;8.378;2022-12-07T08:12:48;4.20;99.90
64855;DHT22;51321;50.428;8.378;2022-12-07T08:15:29;4.10;99.90
64855;DHT22;51321;50.428;8.378;2022-12-07T08:17:51;4.00;99.90
64855;DHT22;51321;50.428;8.378;2022-12-07T08:20:13;4.00;99.90
64855;DHT22;51321;50.428;8.378;2022-12-07T08:22:36;3.90;99.90
64855;DHT22;51321;50.428;8.378;2022-12-07T08:24:59;4.00;99.90
64855;DHT22;51321;50.428;8.378;2022-12-07T08:27:21;4.00;99.90
64855;DHT22;51321;50.428;8.378;2022-12-07T08:29:47;4.00;99.90
64855;DHT22;51321;50.428;8.378;2022-12-07T08:32:09;4.10;99.90
64855;DHT22;51321;50.428;8.378;2022-12-07T08:34:31;4.10;99.90
64855;DHT22;51321;50.428;8.378;2022-12-07T08:36:53;4.30;99.90
64855;DHT22;51321;50.428;8.378;2022-12-07T08:39:17;4.30;99.90
64855;DHT22;51321;50.428;8.378;2022-12-07T08:41:39;4.50;99.90
64855;DHT22;51321;50.428;8.378;2022-12-07T08:44:01;4.60;99.90
64855;DHT22;51321;50.428;8.378;2022-12-07T08:46:24;4.70;99.90
64855;DHT22;51321;50.428;8.378;2022-12-07T08:48:50;4.70;99.90
64855;DHT22;51321;50.428;8.378;2022-12-07T08:51:13;4.90;99.90
64855;DHT22;51321;50.428;8.378;2022-12-07T08:53:39;4.90;99.90
64855;DHT22;51321;50.428;8.378;2022-12-07T08:56:03;4.90;99.90
64855;DHT22;51321;50.428;8.378;2022-12-07T08:58:26;5.00;99.90
64855;DHT22;51321;50.428;8.378;2022-12-07T09:00:50;5.00;99.90
64855;DHT22;51321;50.428;8.378;2022-12-07T09:03:12;4.90;99.90
64855;DHT22;51321;50.428;8.378;2022-12-07T09:05:34;4.90;99.90
64855;DHT22;51321;50.428;8.378;2022-12-07T09:07:57;4.90;99.90
64855;DHT22;51321;50.428;8.378;2022-12-07T09:10:21;4.90;99.90
64855;DHT22;51321;50.428;8.378;2022-12-07T09:12:45;4.90;99.90
64855;DHT22;51321;50.428;8.378;2022-12-07T09:15:08;4.90;99.90
64855;DHT22;51321;50.428;8.378;2022-12-07T09:17:33;5.00;99.90
64855;DHT22;51321;50.428;8.378;2022-12-07T09:19:56;5.00;99.90
64855;DHT22;51321;50.428;8.378;2022-12-07T09:22:18;5.30;99.90
64855;DHT22;51321;50.428;8.378;2022-12-07T09:24:40;5.40;99.90
64855;DHT22;51321;50.428;8.378;2022-12-07T09:27:02;5.50;99.90
64855;DHT22;51321;50.428;8.378;2022-12-07T09:29:27;5.50;99.90
64855;DHT22;51321;50.428;8.378;2022-12-07T09:31:49;5.50;99.90
64855;DHT22;51321;50.428;8.378;2022-12-07T09:34:11;5.50;99.90
64855;DHT22;51321;50.428;8.378;2022-12-07T09:36:34;5.40;99.90
64855;DHT22;51321;50.428;8.378;2022-12-07T09:38:56;5.40;99.90
64855;DHT22;51321;50.428;8.378;2022-12-07T09:41:18;5.40;99.90
64855;DHT22;51321;50.428;8.378;2022-12-07T09:43:41;5.40;99.90
64855;DHT22;51321;50.428;8.378;2022-12-07T09:46:04;5.40;99.90
64855;DHT22;51321;50.428;8.378;2022-12-07T09:48:30;5.50;99.90
64855;DHT22;51321;50.428;8.378;2022-12-07T09:50:54;5.50;99.90
64855;DHT22;51321;50.428;8.378;2022-12-07T09:53:22;5.60;99.90
64855;DHT22;51321;50.428;8.378;2022-12-07T09:55:46;5.60;99.90
64855;DHT22;51321;50.428;8.378;2022-12-07T09:58:12;5.60;99.90
64855;DHT22;51321;50.428;8.378;2022-12-07T10:00:40;5.50;99.90
64855;DHT22;51321;50.428;8.378;2022-12-07T10:03:04;5.60;99.90
64855;DHT22;51321;50.428;8.378;2022-12-07T10:05:28;5.80;99.90
64855;DHT22;51321;50.428;8.378;2022-12-07T10:07:52;6.00;99.90
64855;DHT22;51321;50.428;8.378;2022-12-07T10:10:16;6.40;99.90
64855;DHT22;51321;50.428;8.378;2022-12-07T10:12:53;6.50;99.90
64855;DHT22;51321;50.428;8.378;2022-12-07T10:15:16;6.80;99.90
64855;DHT22;51321;50.428;8.378;2022-12-07T10:17:39;7.10;99.90
64855;DHT22;51321;50.428;8.378;2022-12-07T10:20:25;7.10;99.90
64855;DHT22;51321;50.428;8.378;2022-12-07T10:22:55;6.90;99.90
64855;DHT22;51321;50.428;8.378;2022-12-07T10:25:19;6.70;99.90
64855;DHT22;51321;50.428;8.378;2022-12-07T10:27:41;6.80;99.90
64855;DHT22;51321;50.428;8.378;2022-12-07T10:30:08;6.90;99.90
64855;DHT22;51321;50.428;8.378;2022-12-07T10:32:36;6.90;99.90
64855;DHT22;51321;50.428;8.378;2022-12-07T10:35:19;6.80;99.90
64855;DHT22;51321;50.428;8.378;2022-12-07T10:37:42;7.20;99.90
64855;DHT22;51321;50.428;8.378;2022-12-07T10:40:24;7.30;99.90
64855;DHT22;51321;50.428;8.378;2022-12-07T10:43:00;7.40;99.90
64855;DHT22;51321;50.428;8.378;2022-12-07T10:45:22;7.60;99.90
64855;DHT22;51321;50.428;8.378;2022-12-07T10:47:45;7.50;99.90
64855;DHT22;51321;50.428;8.378;2022-12-07T10:50:29;7.30;99.90
64855;DHT22;51321;50.428;8.378;2022-12-07T10:53:12;7.30;99.90
64855;DHT22;51321;50.428;8.378;2022-12-07T10:55:53;7.10;99.90
64855;DHT22;51321;50.428;8.378;2022-12-07T10:58:31;7.00;99.90
64855;DHT22;51321;50.428;8.378;2022-12-07T11:01:04;6.90;99.90
64855;DHT22;51321;50.428;8.378;2022-12-07T11:03:37;6.80;99.90
64855;DHT22;51321;50.428;8.378;2022-12-07T11:06:13;6.70;99.90
64855;DHT22;51321;50.428;8.378;2022-12-07T11:08:48;6.70;99.90
64855;DHT22;51321;50.428;8.378;2022-12-07T11:11:15;6.70;99.90
64855;DHT22;51321;50.428;8.378;2022-12-07T11:13:47;6.70;99.90
64855;DHT22;51321;50.428;8.378;2022-12-07T11:16:19;7.00;99.90
64855;DHT22;51321;50.428;8.378;2022-12-07T11:18:50;7.30;99.90
64855;DHT22;51321;50.428;8.378;2022-12-07T11:21:19;7.80;99.90
64855;DHT22;51321;50.428;8.378;2022-12-07T11:23:49;7.80;99.90
64855;DHT22;51321;50.428;8.378;2022-12-07T11:26:20;7.80;99.90
64855;DHT22;51321;50.428;8.378;2022-12-07T11:29:00;7.60;99.90
64855;DHT22;51321;50.428;8.378;2022-12-07T11:31:32;7.50;99.90
64855;DHT22;51321;50.428;8.378;2022-12-07T11:34:02;7.30;99.90
64855;DHT22;51321;50.428;8.378;2022-12-07T11:36:36;7.10;99.90
64855;DHT22;51321;50.428;8.378;2022-12-07T11:39:02;6.80;99.90
64855;DHT22;51321;50.428;8.378;2022-12-07T11:41:28;6.70;99.90
64855;DHT22;51321;50.428;8.378;2022-12-07T11:43:54;6.50;99.90
64855;DHT22;51321;50.428;8.378;2022-12-07T11:46:18;6.50;99.90
64855;DHT22;51321;50.428;8.378;2022-12-07T11:48:45;6.50;99.90
64855;DHT22;51321;50.428;8.378;2022-12-07T11:51:10;6.40;99.90
64855;DHT22;51321;50.428;8.378;2022-12-07T11:53:37;6.30;99.90
64855;DHT22;51321;50.428;8.378;2022-12-07T11:56:08;6.20;99.90
64855;DHT22;51321;50.428;8.378;2022-12-07T11:58:49;6.10;99.90
64855;DHT22;51321;50.428;8.378;2022-12-07T12:01:18;6.10;99.90
64855;DHT22;51321;50.428;8.378;2022-12-07T12:03:46;6.00;99.90
64855;DHT22;51321;50.428;8.378;2022-12-07T12:06:09;6.20;99.90
64855;DHT22;51321;50.428;8.378;2022-12-07T12:08:32;6.20;99.90
64855;DHT22;51321;50.428;8.378;2022-12-07T12:11:02;6.20;99.90
64855;DHT22;51321;50.428;8.378;2022-12-07T12:13:56;6.30;99.90
64855;DHT22;51321;50.428;8.378;2022-12-07T12:16:40;6.40;99.90
64855;DHT22;51321;50.428;8.378;2022-12-07T12:19:26;6.40;99.90
64855;DHT22;51321;50.428;8.378;2022-12-07T12:21:54;6.50;99.90
64855;DHT22;51321;50.428;8.378;2022-12-07T12:24:21;6.50;99.90
64855;DHT22;51321;50.428;8.378;2022-12-07T12:26:49;6.50;99.90
64855;DHT22;51321;50.428;8.378;2022-12-07T12:29:22;6.50;99.90
64855;DHT22;51321;50.428;8.378;2022-12-07T12:31:47;6.40;99.90
64855;DHT22;51321;50.428;8.378;2022-12-07T12:34:38;6.40;99.90
64855;DHT22;51321;50.428;8.378;2022-12-07T12:37:00;6.40;99.90
64855;DHT22;51321;50.428;8.378;2022-12-07T12:39:23;6.30;99.90
64855;DHT22;51321;50.428;8.378;2022-12-07T12:42:17;6.40;99.90
64855;DHT22;51321;50.428;8.378;2022-12-07T12:47:53;6.60;99.90
64855;DHT22;51321;50.428;8.378;2022-12-07T12:50:18;6.60;99.90
64855;DHT22;51321;50.428;8.378;2022-12-07T12:52:53;6.50;99.90
64855;DHT22;51321;50.428;8.378;2022-12-07T12:55:26;6.40;99.90
64855;DHT22;51321;50.428;8.378;2022-12-07T13:03:57;6.20;99.90
64855;DHT22;51321;50.428;8.378;2022-12-07T13:06:35;6.20;99.90
64855;DHT22;51321;50.428;8.378;2022-12-07T13:08:59;6.10;99.90
64855;DHT22;51321;50.428;8.378;2022-12-07T13:11:28;6.20;99.90
64855;DHT22;51321;50.428;8.378;2022-12-07T13:13:51;6.10;99.90
64855;DHT22;51321;50.428;8.378;2022-12-07T13:16:41;6.20;99.90
64855;DHT22;51321;50.428;8.378;2022-12-07T13:22:47;6.20;99.90
64855;DHT22;51321;50.428;8.378;2022-12-07T13:25:12;6.30;99.90
64855;DHT22;51321;50.428;8.378;2022-12-07T13:27:42;6.20;99.90
64855;DHT22;51321;50.428;8.378;2022-12-07T13:30:14;6.20;99.90
64855;DHT22;51321;50.428;8.378;2022-12-07T13:32:37;6.10;99.90
64855;DHT22;51321;50.428;8.378;2022-12-07T13:35:00;6.10;99.90
64855;DHT22;51321;50.428;8.378;2022-12-07T13:37:43;5.90;99.90
64855;DHT22;51321;50.428;8.378;2022-12-07T13:40:18;5.80;99.90
64855;DHT22;51321;50.428;8.378;2022-12-07T13:42:41;5.70;99.90
64855;DHT22;51321;50.428;8.378;2022-12-07T13:45:20;5.60;99.90
64855;DHT22;51321;50.428;8.378;2022-12-07T13:48:04;5.60;99.90
64855;DHT22;51321;50.428;8.378;2022-12-07T13:50:30;5.60;99.90
64855;DHT22;51321;50.428;8.378;2022-12-07T13:52:55;5.50;99.90
64855;DHT22;51321;50.428;8.378;2022-12-07T13:55:17;5.40;99.90
64855;DHT22;51321;50.428;8.378;2022-12-07T13:57:40;5.30;99.90
64855;DHT22;51321;50.428;8.378;2022-12-07T14:00:04;5.20;99.90
64855;DHT22;51321;50.428;8.378;2022-12-07T14:02:29;5.20;99.90
64855;DHT22;51321;50.428;8.378;2022-12-07T14:04:51;5.20;99.90
64855;DHT22;51321;50.428;8.378;2022-12-07T14:07:24;5.20;99.90
64855;DHT22;51321;50.428;8.378;2022-12-07T14:09:53;5.10;99.90
64855;DHT22;51321;50.428;8.378;2022-12-07T14:12:17;5.10;99.90
64855;DHT22;51321;50.428;8.378;2022-12-07T14:14:47;5.10;99.90
64855;DHT22;51321;50.428;8.378;2022-12-07T14:17:15;5.10;99.90
64855;DHT22;51321;50.428;8.378;2022-12-07T14:19:44;5.20;99.90
64855;DHT22;51321;50.428;8.378;2022-12-07T14:22:07;5.20;99.90
64855;DHT22;51321;50.428;8.378;2022-12-07T14:24:41;5.20;99.90
64855;DHT22;51321;50.428;8.378;2022-12-07T14:27:03;5.30;99.90
64855;DHT22;51321;50.428;8.378;2022-12-07T14:29:37;5.20;99.90
64855;DHT22;51321;50.428;8.378;2022-12-07T14:32:11;5.20;99.90
64855;DHT22;51321;50.428;8.378;2022-12-07T14:34:38;5.20;99.90
64855;DHT22;51321;50.428;8.378;2022-12-07T14:37:00;5.20;99.90
64855;DHT22;51321;50.428;8.378;2022-12-07T14:39:22;5.10;99.90
64855;DHT22;51321;50.428;8.378;2022-12-07T14:41:45;5.10;99.90
64855;DHT22;51321;50.428;8.378;2022-12-07T14:44:14;5.10;99.90
64855;DHT22;51321;50.428;8.378;2022-12-07T14:46:36;5.10;99.90
64855;DHT22;51321;50.428;8.378;2022-12-07T14:48:58;5.00;99.90
64855;DHT22;51321;50.428;8.378;2022-12-07T14:51:20;5.00;99.90
64855;DHT22;51321;50.428;8.378;2022-12-07T14:53:44;5.10;99.90
64855;DHT22;51321;50.428;8.378;2022-12-07T14:56:07;5.10;99.90
64855;DHT22;51321;50.428;8.378;2022-12-07T14:58:31;5.00;99.90
64855;DHT22;51321;50.428;8.378;2022-12-07T15:00:54;4.90;99.90
64855;DHT22;51321;50.428;8.378;2022-12-07T15:03:16;4.90;99.90
64855;DHT22;51321;50.428;8.378;2022-12-07T15:05:38;4.80;99.90
64855;DHT22;51321;50.428;8.378;2022-12-07T15:08:00;4.80;99.90
64855;DHT22;51321;50.428;8.378;2022-12-07T15:10:24;4.70;99.90
64855;DHT22;51321;50.428;8.378;2022-12-07T15:12:50;4.70;99.90
64855;DHT22;51321;50.428;8.378;2022-12-07T15:15:14;4.60;99.90
64855;DHT22;51321;50.428;8.378;2022-12-07T15:17:36;4.60;99.90
64855;DHT22;51321;50.428;8.378;2022-12-07T15:19:58;4.60;99.90
64855;DHT22;51321;50.428;8.378;2022-12-07T15:22:20;4.70;99.90
64855;DHT22;51321;50.428;8.378;2022-12-07T15:24:42;4.60;99.90
64855;DHT22;51321;50.428;8.378;2022-12-07T15:27:04;4.50;99.90
64855;DHT22;51321;50.428;8.378;2022-12-07T15:29:26;4.50;99.90
64855;DHT22;51321;50.428;8.378;2022-12-07T15:31:50;4.40;99.90
64855;DHT22;51321;50.428;8.378;2022-12-07T15:34:13;4.30;99.90
64855;DHT22;51321;50.428;8.378;2022-12-07T15:36:35;4.30;99.90
64855;DHT22;51321;50.428;8.378;2022-12-07T15:38:57;4.30;99.90
64855;DHT22;51321;50.428;8.378;2022-12-07T15:41:20;4.20;99.90
64855;DHT22;51321;50.428;8.378;2022-12-07T15:43:42;4.20;99.90
64855;DHT22;51321;50.428;8.378;2022-12-07T15:46:21;4.10;99.90
64855;DHT22;51321;50.428;8.378;2022-12-07T15:48:46;4.00;99.90
64855;DHT22;51321;50.428;8.378;2022-12-07T15:51:09;3.90;99.90